»·PEaware :: N2983C KSEA-KPDX

N2983C :: KSEA-KPDX

FLIGHT INFORMATION

Flight Status: Arrived
Operator: Privately registered:
United States
More flights under this callsign
Pilot: Roland C. (21206)
Aircraft: CESSNA 172 SKYHAWK
(C172)
More flights by this aircraft type
Origin: KSEA Seattle-Tacoma Intl
United States
Destination: KPDX Portland Intl
United States
More flights between these airports :: More routes between these airports
Route: +
File this flight plan on PilotEdge
Remarks:
Altitude:
(Current/Filed)
0ft
Speed:
(Current/Filed)
0kts
Departed: 11-Jan-19 12:40 PM
Arrived: 11-Jan-19 01:49 PM
Distance/Time
Traveled:
112nm/1:09
Distance/Time
To Go:
Arrived

Flight Plot

Page will automatically refresh every two minutes.

Flight plan parsing failed; only flown route is shown


Map Options




Map Legend


Flown Route
Filed Route
Departure Airport
Arrival Airport
Navaid (VOR, NDB)
Fix

Horizontal Profiles

Position Reports

Time Latitude Longitude Heading Altitude Ground
Speed
11-Jan-19 12:30 47.436437 -122.304617 101 436ft 0kts
11-Jan-19 12:31 47.436437 -122.304613 101 436ft 0kts
11-Jan-19 12:32 47.436436 -122.304609 101 436ft 0kts
11-Jan-19 12:33 47.436430 -122.304567 103 436ft 2kts
11-Jan-19 12:34 47.435734 -122.305116 239 436ft 7kts
11-Jan-19 12:35 47.433197 -122.305559 180 436ft 10kts
11-Jan-19 12:36 47.431511 -122.307090 273 436ft 0kts
11-Jan-19 12:37 47.431511 -122.307095 273 436ft 0kts
11-Jan-19 12:38 47.431512 -122.307216 270 436ft 7kts
11-Jan-19 12:39 47.444489 -122.307841 1 764ft 92kts
11-Jan-19 12:40 47.470253 -122.308093 356 1876ft 89kts
11-Jan-19 12:41 47.490300 -122.321892 282 2683ft 114kts
11-Jan-19 12:42 47.489432 -122.372347 267 2700ft 125kts
11-Jan-19 12:43 47.487822 -122.422913 267 2696ft 121kts
11-Jan-19 12:44 47.474721 -122.466326 211 2702ft 121kts
11-Jan-19 12:45 47.441591 -122.473607 180 2702ft 121kts
11-Jan-19 12:46 47.407732 -122.474647 180 2700ft 121kts
11-Jan-19 12:47 47.374301 -122.471674 167 2700ft 121kts
11-Jan-19 12:48 47.341199 -122.460699 167 2701ft 121kts
11-Jan-19 12:49 47.309338 -122.445054 157 2700ft 121kts
11-Jan-19 12:50 47.277906 -122.426345 160 2700ft 121kts
11-Jan-19 12:51 47.246085 -122.409545 160 2700ft 121kts
11-Jan-19 12:52 47.219571 -122.382125 113 2700ft 121kts
11-Jan-19 12:53 47.206211 -122.336570 113 2700ft 121kts
11-Jan-19 12:54 47.192874 -122.291033 113 2700ft 121kts
11-Jan-19 12:55 47.171839 -122.252259 131 2701ft 121kts
11-Jan-19 12:56 47.140365 -122.244424 186 2705ft 121kts
11-Jan-19 12:57 47.106849 -122.250635 187 2700ft 121kts
11-Jan-19 12:58 47.073716 -122.256797 187 2823ft 115kts
11-Jan-19 12:59 47.042052 -122.262737 186 2995ft 116kts
11-Jan-19 13:00 47.009067 -122.269016 192 3001ft 121kts
11-Jan-19 13:01 46.984478 -122.301688 226 3002ft 121kts
11-Jan-19 13:02 46.961020 -122.337452 226 3000ft 121kts
11-Jan-19 13:03 46.937685 -122.372990 226 3081ft 116kts
11-Jan-19 13:04 46.910473 -122.390866 183 3881ft 106kts
11-Jan-19 13:05 46.883056 -122.394500 185 4894ft 93kts
11-Jan-19 13:06 46.855837 -122.398840 186 5642ft 106kts
11-Jan-19 13:07 46.826112 -122.403628 186 6333ft 108kts
11-Jan-19 13:08 46.796532 -122.408372 186 7034ft 106kts
11-Jan-19 13:09 46.764729 -122.413028 187 7388ft 122kts
11-Jan-19 13:10 46.731227 -122.418845 186 7491ft 118kts
11-Jan-19 13:11 46.698500 -122.424114 186 7501ft 119kts
11-Jan-19 13:12 46.665445 -122.429387 186 7500ft 120kts
11-Jan-19 13:13 46.632271 -122.434674 186 7500ft 120kts
11-Jan-19 13:14 46.599024 -122.439966 186 7500ft 119kts
11-Jan-19 13:15 46.565942 -122.445233 186 7500ft 120kts
11-Jan-19 13:16 46.532678 -122.450509 186 7500ft 120kts
11-Jan-19 13:17 46.499579 -122.455755 186 7500ft 120kts
11-Jan-19 13:18 46.466271 -122.461029 186 7500ft 120kts
11-Jan-19 13:19 46.433039 -122.466294 186 7500ft 120kts
11-Jan-19 13:20 46.399944 -122.471517 186 7500ft 120kts
11-Jan-19 13:21 46.366719 -122.476762 186 7500ft 120kts
11-Jan-19 13:22 46.333596 -122.481980 186 7500ft 120kts
11-Jan-19 13:23 46.300306 -122.487221 186 7500ft 120kts
11-Jan-19 13:24 46.267190 -122.492426 186 7502ft 120kts
11-Jan-19 13:25 46.233930 -122.497652 186 7501ft 120kts
11-Jan-19 13:26 46.200772 -122.502850 186 7500ft 120kts
11-Jan-19 13:27 46.167470 -122.508062 186 7499ft 120kts
11-Jan-19 13:28 46.134267 -122.513261 186 7501ft 120kts
11-Jan-19 13:29 46.101164 -122.518440 186 7500ft 120kts
11-Jan-19 13:30 46.067896 -122.523626 186 7500ft 120kts
11-Jan-19 13:31 46.034699 -122.528802 186 7499ft 120kts
11-Jan-19 13:32 46.001458 -122.533975 186 7500ft 120kts
11-Jan-19 13:33 45.968516 -122.539107 186 7165ft 113kts
11-Jan-19 13:34 45.937220 -122.543955 186 6671ft 112kts
11-Jan-19 13:35 45.906500 -122.548714 186 6228ft 112kts
11-Jan-19 13:36 45.874808 -122.553630 186 5840ft 114kts
11-Jan-19 13:38 45.843209 -122.558516 186 5510ft 109kts
11-Jan-19 13:39 45.813888 -122.563017 186 5494ft 100kts
11-Jan-19 13:40 45.786899 -122.567159 186 5420ft 106kts
11-Jan-19 13:41 45.757621 -122.572299 190 4880ft 99kts
11-Jan-19 13:42 45.731338 -122.581818 200 4448ft 99kts
11-Jan-19 13:43 45.705874 -122.597498 204 3661ft 99kts
11-Jan-19 13:44 45.679636 -122.603003 175 2589ft 94kts
11-Jan-19 13:45 45.655248 -122.607104 204 1746ft 85kts
11-Jan-19 13:46 45.631890 -122.621469 203 1268ft 94kts
11-Jan-19 13:47 45.607031 -122.625701 142 638ft 89kts
11-Jan-19 13:48 45.594759 -122.595464 119 65ft 78kts
11-Jan-19 13:49 45.590159 -122.585254 278 21ft 11kts
11-Jan-19 13:50 45.590189 -122.585573 278 21ft 0kts
11-Jan-19 13:57 45.590192 -122.585605 278 21ft 0kts
11-Jan-19 13:57 45.590193 -122.585609 278 21ft 0kts
11-Jan-19 13:58 45.588768 -122.583260 120 21ft 19kts
11-Jan-19 13:59 45.586501 -122.578533 209 21ft 3kts
11-Jan-19 14:01 45.584617 -122.577337 206 21ft 2kts
11-Jan-19 14:02 45.584600 -122.577349 206 21ft 0kts
11-Jan-19 14:02 45.584600 -122.577349 206 21ft 0kts

Navigation Log

Ident Type
Flight plan parsing failed, navigation log unavailable